createdAt,value
2023-02-09T00:01:25.266Z,10.97
2023-02-09T00:03:53.059Z,10.23
2023-02-09T00:06:23.813Z,11.63
2023-02-09T00:08:50.970Z,11.23
2023-02-09T00:11:49.555Z,15.10
2023-02-09T00:14:21.508Z,9.77
2023-02-09T00:16:49.913Z,9.87
2023-02-09T00:19:17.342Z,12.40
2023-02-09T00:21:44.296Z,9.17
2023-02-09T00:24:11.834Z,9.47
2023-02-09T00:26:39.447Z,8.00
2023-02-09T00:29:07.476Z,7.37
2023-02-09T00:31:35.164Z,8.50
2023-02-09T00:34:02.868Z,7.83
2023-02-09T00:36:30.105Z,6.87
2023-02-09T00:38:57.236Z,9.30
2023-02-09T00:41:42.629Z,8.20
2023-02-09T00:44:11.310Z,8.20
2023-02-09T00:46:38.066Z,9.23
2023-02-09T00:49:05.339Z,6.80
2023-02-09T00:51:32.155Z,9.87
2023-02-09T00:53:58.858Z,8.30
2023-02-09T00:56:25.621Z,7.37
2023-02-09T00:58:52.324Z,6.33
2023-02-09T01:01:19.131Z,8.87
2023-02-09T01:03:46.974Z,6.50
2023-02-09T01:06:13.877Z,7.07
2023-02-09T01:08:40.643Z,6.27
2023-02-09T01:11:13.961Z,6.27
2023-02-09T01:13:41.732Z,5.87
2023-02-09T01:16:12.207Z,7.87
2023-02-09T01:18:39.543Z,5.37
2023-02-09T01:21:20.821Z,8.27
2023-02-09T01:23:47.977Z,5.03
2023-02-09T01:26:16.515Z,7.23
2023-02-09T01:28:43.716Z,9.00
2023-02-09T01:31:31.731Z,8.30
2023-02-09T01:34:02.380Z,6.97
2023-02-09T01:36:31.332Z,5.13
2023-02-09T01:39:02.245Z,10.80
2023-02-09T01:41:29.879Z,5.27
2023-02-09T01:44:01.505Z,8.37
2023-02-09T01:46:34.992Z,6.77
2023-02-09T01:49:26.333Z,7.37
2023-02-09T01:52:05.678Z,8.23
2023-02-09T01:54:37.539Z,7.57
2023-02-09T01:57:10.866Z,6.57
2023-02-09T01:59:41.471Z,6.43
2023-02-09T02:02:10.430Z,6.30
2023-02-09T02:04:39.049Z,7.27
2023-02-09T02:07:18.897Z,7.53
2023-02-09T02:09:46.572Z,9.03
2023-02-09T02:12:14.365Z,6.60
2023-02-09T02:14:41.107Z,11.37
2023-02-09T02:17:36.724Z,12.97
2023-02-09T02:20:55.690Z,7.43
2023-02-09T02:24:00.553Z,9.90
2023-02-09T02:26:42.143Z,8.90
2023-02-09T02:30:03.775Z,9.10
2023-02-09T02:32:50.806Z,10.13
2023-02-09T02:35:40.108Z,7.73
2023-02-09T02:38:22.395Z,7.57
2023-02-09T02:40:56.821Z,9.17
2023-02-09T02:43:43.333Z,6.27
2023-02-09T02:46:23.315Z,7.20
2023-02-09T02:49:06.883Z,7.27
2023-02-09T02:51:39.548Z,8.13
2023-02-09T02:54:14.528Z,6.67
2023-02-09T02:56:47.222Z,7.10
2023-02-09T02:59:22.180Z,6.87
2023-02-09T03:02:06.259Z,6.77
2023-02-09T03:04:36.644Z,7.30
2023-02-09T03:07:08.402Z,7.73
2023-02-09T03:09:35.207Z,5.77
2023-02-09T03:12:38.258Z,8.07
2023-02-09T03:15:52.974Z,7.63
2023-02-09T03:18:42.994Z,12.57
2023-02-09T03:21:29.275Z,7.03
2023-02-09T03:24:05.267Z,6.20
2023-02-09T03:26:45.923Z,6.40
2023-02-09T03:29:15.711Z,7.47
2023-02-09T03:31:43.174Z,8.73
2023-02-09T03:34:10.637Z,9.17
2023-02-09T03:36:40.230Z,7.90
2023-02-09T03:39:06.930Z,8.53
2023-02-09T03:41:33.704Z,6.93
2023-02-09T03:44:18.842Z,8.03
2023-02-09T03:46:45.682Z,7.83
2023-02-09T03:49:14.752Z,9.30
2023-02-09T03:51:42.579Z,10.13
2023-02-09T03:54:09.474Z,10.93
2023-02-09T03:56:37.398Z,11.63
2023-02-09T03:59:05.832Z,10.93
2023-02-09T04:01:35.683Z,10.83
2023-02-09T04:04:04.424Z,9.57
2023-02-09T04:06:34.564Z,9.30
2023-02-09T04:09:03.368Z,11.73
2023-02-09T04:11:30.123Z,7.30
2023-02-09T04:13:57.300Z,8.40
2023-02-09T04:16:24.676Z,10.23
2023-02-09T04:18:51.726Z,7.90
2023-02-09T04:21:18.583Z,9.27
2023-02-09T04:23:45.725Z,9.80
2023-02-09T04:26:12.955Z,9.00
2023-02-09T04:28:39.716Z,8.13
2023-02-09T04:31:06.788Z,10.00
2023-02-09T04:33:33.588Z,8.83
2023-02-09T04:36:00.487Z,8.73
2023-02-09T04:38:27.365Z,9.83
2023-02-09T04:40:58.057Z,8.37
2023-02-09T04:43:24.780Z,9.60
2023-02-09T04:45:51.878Z,10.67
2023-02-09T04:48:21.969Z,6.60
2023-02-09T04:50:49.288Z,7.30
2023-02-09T04:53:16.777Z,9.00
2023-02-09T04:55:46.303Z,14.47
2023-02-09T04:58:36.755Z,10.13
2023-02-09T05:01:05.331Z,7.27
2023-02-09T05:03:32.514Z,12.13
2023-02-09T05:06:05.114Z,8.70
2023-02-09T05:08:32.101Z,9.20
2023-02-09T05:10:59.076Z,8.50
2023-02-09T05:13:27.180Z,9.73
2023-02-09T05:15:54.526Z,11.40
2023-02-09T05:18:22.342Z,8.87
2023-02-09T05:20:50.206Z,8.17
2023-02-09T05:23:17.482Z,10.67
2023-02-09T05:25:45.753Z,8.40
2023-02-09T05:28:12.867Z,11.27
2023-02-09T05:30:39.676Z,8.60
2023-02-09T05:33:06.582Z,12.73
2023-02-09T05:35:33.424Z,11.73
2023-02-09T05:38:00.173Z,11.83
2023-02-09T05:40:26.967Z,10.30
2023-02-09T05:42:53.713Z,9.47
2023-02-09T05:45:20.790Z,11.17
2023-02-09T05:47:47.557Z,12.67
2023-02-09T05:50:14.800Z,14.83
2023-02-09T05:52:41.500Z,17.40
2023-02-09T05:55:08.376Z,17.73
2023-02-09T05:57:35.135Z,13.30
2023-02-09T06:00:03.655Z,17.57
2023-02-09T06:02:30.449Z,19.70
2023-02-09T06:04:57.201Z,17.90
2023-02-09T06:07:23.915Z,13.00
2023-02-09T06:09:50.655Z,10.73
2023-02-09T06:12:17.397Z,17.07
2023-02-09T06:14:44.137Z,10.10
2023-02-09T06:17:10.908Z,13.37
2023-02-09T06:19:37.637Z,8.83
2023-02-09T06:22:04.376Z,12.07
2023-02-09T06:24:31.114Z,10.23
2023-02-09T06:26:57.858Z,10.07
2023-02-09T06:29:24.630Z,13.10
2023-02-09T06:31:51.666Z,10.53
2023-02-09T06:34:18.435Z,8.50
2023-02-09T06:36:45.147Z,9.47
2023-02-09T06:39:11.912Z,9.33
2023-02-09T06:41:38.722Z,11.53
2023-02-09T06:44:05.787Z,10.60
2023-02-09T06:46:33.655Z,11.10
2023-02-09T06:49:00.452Z,10.43
2023-02-09T06:51:27.263Z,13.47
2023-02-09T06:53:54.227Z,15.20
2023-02-09T06:56:20.948Z,10.97
2023-02-09T06:58:47.811Z,13.27
2023-02-09T07:01:16.149Z,13.90
2023-02-09T07:03:44.483Z,15.20
2023-02-09T07:06:16.064Z,10.60
2023-02-09T07:08:44.689Z,9.90
2023-02-09T07:11:17.257Z,9.53
2023-02-09T07:13:44.897Z,10.53
2023-02-09T07:16:13.021Z,9.53
2023-02-09T07:18:40.546Z,12.07
2023-02-09T07:21:19.899Z,12.03
2023-02-09T07:23:48.470Z,11.90
2023-02-09T07:26:18.347Z,11.00
2023-02-09T07:28:45.332Z,12.50
2023-02-09T07:31:15.021Z,12.63
2023-02-09T07:33:42.254Z,14.93
2023-02-09T07:36:13.408Z,16.70
2023-02-09T07:38:40.853Z,12.67
2023-02-09T07:41:15.373Z,15.43
2023-02-09T07:43:42.450Z,13.23
2023-02-09T07:46:10.129Z,14.00
2023-02-09T07:48:37.786Z,15.37
2023-02-09T07:51:05.303Z,15.13
2023-02-09T07:53:33.159Z,17.77
2023-02-09T07:55:59.947Z,13.43
2023-02-09T07:58:26.741Z,18.67
2023-02-09T08:00:53.519Z,15.47
2023-02-09T08:03:23.781Z,12.67
2023-02-09T08:06:10.546Z,17.77
2023-02-09T08:08:37.300Z,15.63
2023-02-09T08:11:05.458Z,11.77
2023-02-09T08:13:38.047Z,19.20
2023-02-09T08:16:09.755Z,17.63
2023-02-09T08:18:41.728Z,18.80
2023-02-09T08:21:12.903Z,19.70
2023-02-09T08:23:43.086Z,14.97
2023-02-09T08:26:13.244Z,13.37
2023-02-09T08:28:45.371Z,15.47
2023-02-09T08:31:15.833Z,12.47
2023-02-09T08:33:44.459Z,12.07
2023-02-09T08:36:13.051Z,11.57
2023-02-09T08:38:39.965Z,13.60
2023-02-09T08:41:10.157Z,15.10
2023-02-09T08:43:36.993Z,11.37
2023-02-09T08:46:11.715Z,14.63
2023-02-09T08:48:43.318Z,11.80
2023-02-09T08:51:12.665Z,15.40
2023-02-09T08:53:40.028Z,13.27
2023-02-09T08:56:07.246Z,14.97
2023-02-09T08:58:34.844Z,12.03
2023-02-09T09:01:01.660Z,13.30
2023-02-09T09:03:31.510Z,11.80
2023-02-09T09:06:05.160Z,11.87
2023-02-09T09:08:34.620Z,11.13
2023-02-09T09:11:02.267Z,10.30
2023-02-09T09:13:29.189Z,10.77
2023-02-09T09:15:56.405Z,11.77
2023-02-09T09:18:24.928Z,10.10
2023-02-09T09:20:52.963Z,12.40
2023-02-09T09:23:21.067Z,11.50
2023-02-09T09:25:48.619Z,13.13
2023-02-09T09:28:16.441Z,11.17
2023-02-09T09:30:43.776Z,11.90
2023-02-09T09:33:10.620Z,13.27
2023-02-09T09:35:37.707Z,10.47
2023-02-09T09:38:04.658Z,11.73
2023-02-09T09:40:36.113Z,10.03
2023-02-09T09:43:08.648Z,11.03
2023-02-09T09:45:39.358Z,9.40
2023-02-09T09:48:26.412Z,10.30
2023-02-09T09:51:00.758Z,10.50
2023-02-09T09:53:33.505Z,13.27
2023-02-09T09:56:08.697Z,9.67
2023-02-09T09:58:40.749Z,10.57
2023-02-09T10:01:14.250Z,9.00
2023-02-09T10:03:41.115Z,10.97
2023-02-09T10:06:34.103Z,10.37
2023-02-09T10:09:22.643Z,10.20
2023-02-09T10:12:11.865Z,9.60
2023-02-09T10:14:38.564Z,10.63
2023-02-09T10:17:06.470Z,10.20
2023-02-09T10:19:33.928Z,11.90
2023-02-09T10:22:00.872Z,10.77
2023-02-09T10:24:33.837Z,10.30
2023-02-09T10:27:20.755Z,10.40
2023-02-09T10:29:48.027Z,11.05
2023-02-09T10:32:19.287Z,10.15
2023-02-09T10:34:52.714Z,9.90
2023-02-09T10:37:57.917Z,11.45
2023-02-09T10:40:32.607Z,10.60
2023-02-09T10:43:20.908Z,11.17
2023-02-09T10:45:59.045Z,10.73
2023-02-09T10:48:29.023Z,11.53
2023-02-09T10:51:12.700Z,10.13
2023-02-09T10:54:02.017Z,11.57
2023-02-09T10:56:43.662Z,10.07
2023-02-09T10:59:22.877Z,11.47
2023-02-09T11:01:58.273Z,11.33
2023-02-09T11:04:40.490Z,11.13
2023-02-09T11:07:17.749Z,11.97
2023-02-09T11:09:51.585Z,9.47
2023-02-09T11:12:22.532Z,10.00
2023-02-09T11:14:49.557Z,12.50
2023-02-09T11:17:41.184Z,8.60
2023-02-09T11:20:51.162Z,10.17
2023-02-09T11:23:44.520Z,9.80
2023-02-09T11:26:30.073Z,9.50
2023-02-09T11:29:17.117Z,9.63
2023-02-09T11:32:17.571Z,9.90
2023-02-09T11:35:10.071Z,10.23
2023-02-09T11:38:01.601Z,13.00
2023-02-09T11:40:42.658Z,9.20
2023-02-09T11:43:18.732Z,9.80
2023-02-09T11:45:51.218Z,9.97
2023-02-09T11:48:30.128Z,10.00
2023-02-09T11:51:15.162Z,9.07
2023-02-09T11:53:51.511Z,9.30
2023-02-09T11:56:25.681Z,9.73
2023-02-09T11:59:19.950Z,11.83
2023-02-09T12:02:46.409Z,9.93
2023-02-09T12:05:19.678Z,8.80
2023-02-09T12:08:26.915Z,10.10
2023-02-09T12:11:18.109Z,9.47
2023-02-09T12:14:37.761Z,10.53
2023-02-09T12:17:18.888Z,9.13
2023-02-09T12:20:00.259Z,8.83
2023-02-09T12:22:36.097Z,9.10
2023-02-09T12:25:12.083Z,9.43
2023-02-09T12:28:03.611Z,10.23
2023-02-09T12:30:42.766Z,10.13
2023-02-09T12:33:25.218Z,9.77
2023-02-09T12:36:02.693Z,9.90
2023-02-09T12:38:51.537Z,10.40
2023-02-09T12:41:35.444Z,9.87
2023-02-09T12:44:10.893Z,11.23
2023-02-09T12:46:53.405Z,9.73
2023-02-09T12:49:33.452Z,11.40
2023-02-09T12:52:02.963Z,13.03
2023-02-09T12:54:40.591Z,10.37
2023-02-09T12:57:16.236Z,11.13
2023-02-09T13:00:00.689Z,11.73
2023-02-09T13:02:42.859Z,10.80
2023-02-09T13:05:30.674Z,11.50
2023-02-09T13:08:13.179Z,12.10
2023-02-09T13:10:42.736Z,10.37
2023-02-09T13:13:12.220Z,10.30
2023-02-09T13:16:29.319Z,11.73
2023-02-09T13:19:21.037Z,9.83
2023-02-09T13:22:21.941Z,10.03
2023-02-09T13:25:00.445Z,11.50
2023-02-09T13:27:30.063Z,10.00
2023-02-09T13:29:59.477Z,10.07
2023-02-09T13:33:32.142Z,10.40
2023-02-09T13:36:16.250Z,11.60
2023-02-09T13:38:49.879Z,9.27
2023-02-09T13:41:37.123Z,10.07
2023-02-09T13:44:18.344Z,10.00
2023-02-09T13:46:57.517Z,11.17
2023-02-09T13:49:27.773Z,13.20
2023-02-09T13:52:22.081Z,12.03
2023-02-09T13:54:49.520Z,10.63
2023-02-09T13:57:36.120Z,14.43
2023-02-09T14:00:15.383Z,11.20
2023-02-09T14:02:49.815Z,10.70
2023-02-09T14:05:48.188Z,15.27
2023-02-09T14:08:18.771Z,12.47
2023-02-09T14:10:56.591Z,9.57
2023-02-09T14:13:36.881Z,11.17
2023-02-09T14:16:06.790Z,10.77
2023-02-09T14:18:52.954Z,10.33
2023-02-09T14:21:31.067Z,11.00
2023-02-09T14:24:00.882Z,13.10
2023-02-09T14:26:51.853Z,13.20
2023-02-09T14:29:37.523Z,11.97
2023-02-09T14:32:38.090Z,12.33
2023-02-09T14:35:44.257Z,10.67
2023-02-09T14:38:36.765Z,15.33
2023-02-09T14:41:32.383Z,15.97
2023-02-09T14:44:07.369Z,19.07
2023-02-09T14:46:56.074Z,16.00
2023-02-09T14:49:23.811Z,16.20
2023-02-09T14:52:01.579Z,14.27
2023-02-09T14:54:33.093Z,15.50
2023-02-09T14:57:01.110Z,16.30
2023-02-09T14:59:28.017Z,15.67
2023-02-09T15:01:55.367Z,12.23
2023-02-09T15:04:22.171Z,17.20
2023-02-09T15:07:02.854Z,16.87
2023-02-09T15:09:36.773Z,14.20
2023-02-09T15:12:06.004Z,14.53
2023-02-09T15:14:44.716Z,16.37
2023-02-09T15:17:20.772Z,13.50
2023-02-09T15:19:48.172Z,15.43
2023-02-09T15:22:16.969Z,12.83
2023-02-09T15:24:46.687Z,16.20
2023-02-09T15:27:31.994Z,16.43
2023-02-09T15:30:01.682Z,16.13
2023-02-09T15:32:29.784Z,13.97
2023-02-09T15:34:56.567Z,12.20
2023-02-09T15:37:32.996Z,17.83
2023-02-09T15:40:40.856Z,14.93
2023-02-09T15:43:32.216Z,21.77
2023-02-09T15:46:17.911Z,18.87
2023-02-09T15:48:44.798Z,20.53
2023-02-09T15:51:11.822Z,15.90
2023-02-09T15:53:39.061Z,21.27
2023-02-09T15:56:08.049Z,19.37
2023-02-09T15:58:39.497Z,23.77
2023-02-09T16:01:06.799Z,18.80
2023-02-09T16:03:33.640Z,18.57
2023-02-09T16:06:07.317Z,17.20
2023-02-09T16:08:35.419Z,22.90
2023-02-09T16:11:02.792Z,17.83
2023-02-09T16:13:29.531Z,16.40
2023-02-09T16:16:05.121Z,19.63
2023-02-09T16:18:37.943Z,19.43
2023-02-09T16:21:07.080Z,20.70
2023-02-09T16:23:35.048Z,23.40
2023-02-09T16:26:05.108Z,15.20
2023-02-09T16:28:31.934Z,16.40
2023-02-09T16:30:58.794Z,17.40
2023-02-09T16:33:26.544Z,16.40
2023-02-09T16:35:55.994Z,15.60
2023-02-09T16:38:24.962Z,20.13
2023-02-09T16:40:54.067Z,20.23
2023-02-09T16:43:22.491Z,20.33
2023-02-09T16:46:02.748Z,19.50
2023-02-09T16:48:34.321Z,19.50
2023-02-09T16:51:01.129Z,19.47
2023-02-09T16:53:36.684Z,18.73
2023-02-09T16:56:10.017Z,19.43
2023-02-09T16:58:37.480Z,17.27
2023-02-09T17:01:16.796Z,21.63
2023-02-09T17:03:48.037Z,22.43
2023-02-09T17:06:25.270Z,21.87
2023-02-09T17:08:53.195Z,20.60
2023-02-09T17:11:24.679Z,18.73
2023-02-09T17:13:51.482Z,20.20
2023-02-09T17:16:34.190Z,19.53
2023-02-09T17:19:04.688Z,20.23
2023-02-09T17:21:38.000Z,20.33
2023-02-09T17:24:11.634Z,22.73
2023-02-09T17:26:39.964Z,21.33
2023-02-09T17:29:07.358Z,19.07
2023-02-09T17:31:50.780Z,22.97
2023-02-09T17:34:20.221Z,23.83
2023-02-09T17:36:47.060Z,25.60
2023-02-09T17:39:13.992Z,26.80
2023-02-09T17:41:46.455Z,24.10
2023-02-09T17:44:39.595Z,23.30
2023-02-09T17:47:16.820Z,21.17
2023-02-09T17:49:44.032Z,20.73
2023-02-09T17:52:30.374Z,18.30
2023-02-09T17:54:57.422Z,22.40
2023-02-09T17:57:27.447Z,19.80
2023-02-09T17:59:54.261Z,23.93
2023-02-09T18:02:21.299Z,23.60
2023-02-09T18:04:48.109Z,30.93
2023-02-09T18:07:20.832Z,24.50
2023-02-09T18:09:47.783Z,22.43
2023-02-09T18:12:21.260Z,26.83
2023-02-09T18:14:48.200Z,26.83
2023-02-09T18:17:15.092Z,22.17
2023-02-09T18:19:41.871Z,23.97
2023-02-09T18:22:16.868Z,20.07
2023-02-09T18:24:44.033Z,23.67
2023-02-09T18:27:18.591Z,20.60
2023-02-09T18:29:45.527Z,21.53
2023-02-09T18:32:16.464Z,26.00
2023-02-09T18:34:43.801Z,20.80
2023-02-09T18:37:10.535Z,23.23
2023-02-09T18:39:40.631Z,21.77
2023-02-09T18:42:07.388Z,24.83
2023-02-09T18:44:34.266Z,30.30
2023-02-09T18:47:01.879Z,25.60
2023-02-09T18:49:29.812Z,27.63
2023-02-09T18:51:58.656Z,26.40
2023-02-09T18:54:27.169Z,27.73
2023-02-09T18:56:55.424Z,26.47
2023-02-09T18:59:22.176Z,26.40
2023-02-09T19:01:50.352Z,25.33
2023-02-09T19:04:17.142Z,24.63
2023-02-09T19:06:43.885Z,23.50
2023-02-09T19:09:10.656Z,28.77
2023-02-09T19:11:37.661Z,24.43
2023-02-09T19:14:23.780Z,24.37
2023-02-09T19:16:50.946Z,29.67
2023-02-09T19:19:19.151Z,24.67
2023-02-09T19:21:47.680Z,26.87
2023-02-09T19:24:14.808Z,26.87
2023-02-09T19:26:42.049Z,29.53
2023-02-09T19:29:09.039Z,27.57
2023-02-09T19:31:37.230Z,28.83
2023-02-09T19:34:04.277Z,26.10
2023-02-09T19:36:31.060Z,28.63
2023-02-09T19:38:57.861Z,27.17
2023-02-09T19:41:25.630Z,24.60
2023-02-09T19:43:58.983Z,26.57
2023-02-09T19:46:25.934Z,28.77
2023-02-09T19:48:55.951Z,27.10
2023-02-09T19:51:23.369Z,29.10
2023-02-09T19:53:50.883Z,24.37
2023-02-09T19:56:20.769Z,26.67
2023-02-09T19:58:47.577Z,26.03
2023-02-09T20:01:14.373Z,26.70
2023-02-09T20:03:41.341Z,27.73
2023-02-09T20:06:12.026Z,28.63
2023-02-09T20:08:39.860Z,29.43
2023-02-09T20:11:09.813Z,25.27
2023-02-09T20:13:37.619Z,24.43
2023-02-09T20:16:14.385Z,28.37
2023-02-09T20:18:41.281Z,27.13
2023-02-09T20:21:09.768Z,24.40
2023-02-09T20:23:37.415Z,27.83
2023-02-09T20:26:28.952Z,27.33
2023-02-09T20:28:57.300Z,24.07
2023-02-09T20:31:29.708Z,26.03
2023-02-09T20:33:56.636Z,26.20
2023-02-09T20:36:25.525Z,24.60
2023-02-09T20:38:52.493Z,26.87
2023-02-09T20:41:19.319Z,32.67
2023-02-09T20:44:04.717Z,29.33
2023-02-09T20:46:51.736Z,29.63
2023-02-09T20:49:19.391Z,26.80
2023-02-09T20:51:46.987Z,28.67
2023-02-09T20:54:14.530Z,26.70
2023-02-09T20:56:41.812Z,27.07
2023-02-09T20:59:08.969Z,28.07
2023-02-09T21:01:39.808Z,30.23
2023-02-09T21:04:07.415Z,30.07
2023-02-09T21:06:37.093Z,30.37
2023-02-09T21:09:08.962Z,33.63
2023-02-09T21:11:35.721Z,27.60
2023-02-09T21:14:02.578Z,27.57
2023-02-09T21:16:30.811Z,32.47
2023-02-09T21:18:58.533Z,29.73
2023-02-09T21:21:29.414Z,28.80
2023-02-09T21:23:56.210Z,30.67
2023-02-09T21:26:24.439Z,31.93
2023-02-09T21:28:56.004Z,27.07
2023-02-09T21:31:26.884Z,29.03
2023-02-09T21:33:53.889Z,28.00
2023-02-09T21:36:20.627Z,30.03
2023-02-09T21:38:47.464Z,26.23
2023-02-09T21:41:38.875Z,29.17
2023-02-09T21:44:07.392Z,32.90
2023-02-09T21:46:34.444Z,29.07
2023-02-09T21:49:01.429Z,30.00
2023-02-09T21:51:28.275Z,27.00
2023-02-09T21:53:55.411Z,32.33
2023-02-09T21:56:22.459Z,26.23
2023-02-09T21:58:49.241Z,27.77
2023-02-09T22:01:16.007Z,30.73
2023-02-09T22:03:48.257Z,26.57
2023-02-09T22:06:15.279Z,27.67
2023-02-09T22:08:42.030Z,30.87
2023-02-09T22:11:08.761Z,33.40
2023-02-09T22:13:35.541Z,29.50
2023-02-09T22:16:07.456Z,29.33
2023-02-09T22:18:35.082Z,28.03
2023-02-09T22:21:07.476Z,26.17
2023-02-09T22:23:34.340Z,29.33
2023-02-09T22:26:05.458Z,25.43
2023-02-09T22:28:36.033Z,27.37
2023-02-09T22:31:16.502Z,28.07
2023-02-09T22:33:44.164Z,31.93
2023-02-09T22:36:18.208Z,32.40
2023-02-09T22:38:45.269Z,28.67
2023-02-09T22:41:22.478Z,31.97
2023-02-09T22:43:52.333Z,29.20
2023-02-09T22:46:49.501Z,27.83
2023-02-09T22:49:19.965Z,30.60
2023-02-09T22:51:48.813Z,33.47
2023-02-09T22:54:18.329Z,27.73
2023-02-09T22:56:45.383Z,28.77
2023-02-09T22:59:14.799Z,32.90
2023-02-09T23:01:42.551Z,27.73
2023-02-09T23:04:09.730Z,36.37
2023-02-09T23:06:36.612Z,31.00
2023-02-09T23:09:07.399Z,30.23
2023-02-09T23:11:35.455Z,33.27
2023-02-09T23:14:09.576Z,32.37
2023-02-09T23:16:39.486Z,32.00
2023-02-09T23:19:09.392Z,31.53
2023-02-09T23:21:40.724Z,33.43
2023-02-09T23:24:08.593Z,30.23
2023-02-09T23:26:36.357Z,33.17
2023-02-09T23:29:07.234Z,32.83
2023-02-09T23:31:34.528Z,36.20
2023-02-09T23:34:01.336Z,30.23
2023-02-09T23:36:31.744Z,31.23
2023-02-09T23:39:05.232Z,35.63
2023-02-09T23:41:32.332Z,33.20
2023-02-09T23:43:59.653Z,36.87
2023-02-09T23:46:29.101Z,37.17
2023-02-09T23:48:57.268Z,33.07
2023-02-09T23:51:30.823Z,35.40
2023-02-09T23:54:01.513Z,35.50
2023-02-09T23:56:33.084Z,38.03
2023-02-09T23:58:59.799Z,33.97
